sensor_id;sensor_type;location;lat;lon;timestamp;temperature;humidity
19809;DHT22;48538;32.784;-96.802;2023-04-15T00:00:33;24.70;99.90
19809;DHT22;48538;32.784;-96.802;2023-04-15T00:03:00;24.70;99.90
19809;DHT22;48538;32.784;-96.802;2023-04-15T00:05:29;24.80;99.90
19809;DHT22;48538;32.784;-96.802;2023-04-15T00:07:56;24.70;99.90
19809;DHT22;48538;32.784;-96.802;2023-04-15T00:10:24;24.70;99.90
19809;DHT22;48538;32.784;-96.802;2023-04-15T00:12:50;24.70;99.90
19809;DHT22;48538;32.784;-96.802;2023-04-15T00:15:17;24.60;99.90
19809;DHT22;48538;32.784;-96.802;2023-04-15T00:17:43;24.50;99.90
19809;DHT22;48538;32.784;-96.802;2023-04-15T00:20:10;24.50;99.90
19809;DHT22;48538;32.784;-96.802;2023-04-15T00:22:36;24.40;99.90
19809;DHT22;48538;32.784;-96.802;2023-04-15T00:25:02;24.40;99.90
19809;DHT22;48538;32.784;-96.802;2023-04-15T00:27:29;24.30;99.90
19809;DHT22;48538;32.784;-96.802;2023-04-15T00:29:55;24.20;99.90
19809;DHT22;48538;32.784;-96.802;2023-04-15T00:32:22;24.20;99.90
19809;DHT22;48538;32.784;-96.802;2023-04-15T00:34:48;24.20;99.90
19809;DHT22;48538;32.784;-96.802;2023-04-15T00:37:15;24.20;99.90
19809;DHT22;48538;32.784;-96.802;2023-04-15T00:39:41;24.10;99.90
19809;DHT22;48538;32.784;-96.802;2023-04-15T00:42:09;24.00;99.90
19809;DHT22;48538;32.784;-96.802;2023-04-15T00:44:35;23.90;99.90
19809;DHT22;48538;32.784;-96.802;2023-04-15T00:47:03;23.80;99.90
19809;DHT22;48538;32.784;-96.802;2023-04-15T00:49:30;23.70;99.90
19809;DHT22;48538;32.784;-96.802;2023-04-15T00:51:57;23.70;99.90
19809;DHT22;48538;32.784;-96.802;2023-04-15T00:54:23;23.60;99.90
19809;DHT22;48538;32.784;-96.802;2023-04-15T00:56:49;23.50;99.90
19809;DHT22;48538;32.784;-96.802;2023-04-15T00:59:16;23.40;99.90
19809;DHT22;48538;32.784;-96.802;2023-04-15T01:01:43;23.30;99.90
19809;DHT22;48538;32.784;-96.802;2023-04-15T01:04:10;23.30;99.90
19809;DHT22;48538;32.784;-96.802;2023-04-15T01:06:37;23.30;99.90
19809;DHT22;48538;32.784;-96.802;2023-04-15T01:09:03;23.10;99.90
19809;DHT22;48538;32.784;-96.802;2023-04-15T01:11:31;23.10;99.90
19809;DHT22;48538;32.784;-96.802;2023-04-15T01:14:00;23.10;99.90
19809;DHT22;48538;32.784;-96.802;2023-04-15T01:16:27;23.10;99.90
19809;DHT22;48538;32.784;-96.802;2023-04-15T01:18:54;23.00;99.90
19809;DHT22;48538;32.784;-96.802;2023-04-15T01:21:21;23.00;99.90
19809;DHT22;48538;32.784;-96.802;2023-04-15T01:23:48;22.90;99.90
19809;DHT22;48538;32.784;-96.802;2023-04-15T01:26:16;22.90;99.90
19809;DHT22;48538;32.784;-96.802;2023-04-15T01:28:43;22.90;99.90
19809;DHT22;48538;32.784;-96.802;2023-04-15T01:31:13;22.90;99.90
19809;DHT22;48538;32.784;-96.802;2023-04-15T01:33:41;22.90;99.90
19809;DHT22;48538;32.784;-96.802;2023-04-15T01:36:08;22.90;99.90
19809;DHT22;48538;32.784;-96.802;2023-04-15T01:38:36;22.80;99.90
19809;DHT22;48538;32.784;-96.802;2023-04-15T01:41:02;22.80;99.90
19809;DHT22;48538;32.784;-96.802;2023-04-15T01:43:29;22.80;99.90
19809;DHT22;48538;32.784;-96.802;2023-04-15T01:45:56;22.80;99.90
19809;DHT22;48538;32.784;-96.802;2023-04-15T01:48:22;22.70;99.90
19809;DHT22;48538;32.784;-96.802;2023-04-15T01:50:48;22.70;99.90
19809;DHT22;48538;32.784;-96.802;2023-04-15T01:53:15;22.70;99.90
19809;DHT22;48538;32.784;-96.802;2023-04-15T01:55:41;22.60;99.90
19809;DHT22;48538;32.784;-96.802;2023-04-15T01:58:08;22.60;99.90
19809;DHT22;48538;32.784;-96.802;2023-04-15T02:00:34;22.50;99.90
19809;DHT22;48538;32.784;-96.802;2023-04-15T02:03:01;22.40;99.90
19809;DHT22;48538;32.784;-96.802;2023-04-15T02:05:27;22.40;99.90
19809;DHT22;48538;32.784;-96.802;2023-04-15T02:07:53;22.30;99.90
19809;DHT22;48538;32.784;-96.802;2023-04-15T02:10:20;22.30;99.90
19809;DHT22;48538;32.784;-96.802;2023-04-15T02:12:46;22.30;99.90
19809;DHT22;48538;32.784;-96.802;2023-04-15T02:15:12;22.20;99.90
19809;DHT22;48538;32.784;-96.802;2023-04-15T02:17:39;22.30;99.90
19809;DHT22;48538;32.784;-96.802;2023-04-15T02:20:06;22.20;99.90
19809;DHT22;48538;32.784;-96.802;2023-04-15T02:22:33;22.20;99.90
19809;DHT22;48538;32.784;-96.802;2023-04-15T02:25:00;22.10;99.90
19809;DHT22;48538;32.784;-96.802;2023-04-15T02:27:26;22.10;99.90
19809;DHT22;48538;32.784;-96.802;2023-04-15T02:29:53;22.20;99.90
19809;DHT22;48538;32.784;-96.802;2023-04-15T02:32:20;22.20;99.90
19809;DHT22;48538;32.784;-96.802;2023-04-15T02:34:48;22.20;99.90
19809;DHT22;48538;32.784;-96.802;2023-04-15T02:37:14;22.20;99.90
19809;DHT22;48538;32.784;-96.802;2023-04-15T02:39:40;22.20;99.90
19809;DHT22;48538;32.784;-96.802;2023-04-15T02:42:07;22.20;99.90
19809;DHT22;48538;32.784;-96.802;2023-04-15T02:44:33;22.20;99.90
19809;DHT22;48538;32.784;-96.802;2023-04-15T02:47:01;22.20;99.90
19809;DHT22;48538;32.784;-96.802;2023-04-15T02:49:28;22.20;99.90
19809;DHT22;48538;32.784;-96.802;2023-04-15T02:51:56;22.30;99.90
19809;DHT22;48538;32.784;-96.802;2023-04-15T02:54:23;22.20;99.90
19809;DHT22;48538;32.784;-96.802;2023-04-15T02:56:50;22.20;99.90
19809;DHT22;48538;32.784;-96.802;2023-04-15T02:59:20;22.20;99.90
19809;DHT22;48538;32.784;-96.802;2023-04-15T03:01:46;22.20;99.90
19809;DHT22;48538;32.784;-96.802;2023-04-15T03:04:12;22.20;99.90
19809;DHT22;48538;32.784;-96.802;2023-04-15T03:06:39;22.30;99.90
19809;DHT22;48538;32.784;-96.802;2023-04-15T03:09:05;22.20;99.90
19809;DHT22;48538;32.784;-96.802;2023-04-15T03:11:32;22.30;99.90
19809;DHT22;48538;32.784;-96.802;2023-04-15T03:13:58;22.30;99.90
19809;DHT22;48538;32.784;-96.802;2023-04-15T03:16:24;22.20;99.90
19809;DHT22;48538;32.784;-96.802;2023-04-15T03:18:51;22.20;99.90
19809;DHT22;48538;32.784;-96.802;2023-04-15T03:21:17;22.20;99.90
19809;DHT22;48538;32.784;-96.802;2023-04-15T03:23:44;22.30;99.90
19809;DHT22;48538;32.784;-96.802;2023-04-15T03:26:24;22.30;99.90
19809;DHT22;48538;32.784;-96.802;2023-04-15T03:28:51;22.20;99.90
19809;DHT22;48538;32.784;-96.802;2023-04-15T03:31:18;22.30;99.90
19809;DHT22;48538;32.784;-96.802;2023-04-15T03:33:44;22.30;99.90
19809;DHT22;48538;32.784;-96.802;2023-04-15T03:36:10;22.20;99.90
19809;DHT22;48538;32.784;-96.802;2023-04-15T03:38:36;22.30;99.90
19809;DHT22;48538;32.784;-96.802;2023-04-15T03:41:03;22.40;99.90
19809;DHT22;48538;32.784;-96.802;2023-04-15T03:43:29;22.40;99.90
19809;DHT22;48538;32.784;-96.802;2023-04-15T03:45:56;22.40;99.90
19809;DHT22;48538;32.784;-96.802;2023-04-15T03:48:22;22.40;99.90
19809;DHT22;48538;32.784;-96.802;2023-04-15T03:50:48;22.40;99.90
19809;DHT22;48538;32.784;-96.802;2023-04-15T03:53:15;22.30;99.90
19809;DHT22;48538;32.784;-96.802;2023-04-15T03:55:41;22.40;99.90
19809;DHT22;48538;32.784;-96.802;2023-04-15T03:58:07;22.40;99.90
19809;DHT22;48538;32.784;-96.802;2023-04-15T04:00:38;22.40;99.90
19809;DHT22;48538;32.784;-96.802;2023-04-15T04:03:04;22.40;99.90
19809;DHT22;48538;32.784;-96.802;2023-04-15T04:05:31;22.40;99.90
19809;DHT22;48538;32.784;-96.802;2023-04-15T04:07:57;22.40;99.90
19809;DHT22;48538;32.784;-96.802;2023-04-15T04:10:23;22.30;99.90
19809;DHT22;48538;32.784;-96.802;2023-04-15T04:12:50;22.30;99.90
19809;DHT22;48538;32.784;-96.802;2023-04-15T04:15:16;22.30;99.90
19809;DHT22;48538;32.784;-96.802;2023-04-15T04:17:43;22.40;99.90
19809;DHT22;48538;32.784;-96.802;2023-04-15T04:20:09;22.30;99.90
19809;DHT22;48538;32.784;-96.802;2023-04-15T04:22:39;22.20;99.90
19809;DHT22;48538;32.784;-96.802;2023-04-15T04:25:06;22.20;99.90
19809;DHT22;48538;32.784;-96.802;2023-04-15T04:27:36;22.20;99.90
19809;DHT22;48538;32.784;-96.802;2023-04-15T04:30:03;22.20;99.90
19809;DHT22;48538;32.784;-96.802;2023-04-15T04:32:29;22.20;99.90
19809;DHT22;48538;32.784;-96.802;2023-04-15T04:34:56;22.20;99.90
19809;DHT22;48538;32.784;-96.802;2023-04-15T04:37:22;22.20;99.90
19809;DHT22;48538;32.784;-96.802;2023-04-15T04:39:49;22.20;99.90
19809;DHT22;48538;32.784;-96.802;2023-04-15T04:42:15;22.30;99.90
19809;DHT22;48538;32.784;-96.802;2023-04-15T04:44:42;22.30;99.90
19809;DHT22;48538;32.784;-96.802;2023-04-15T04:47:08;22.30;99.90
19809;DHT22;48538;32.784;-96.802;2023-04-15T04:49:34;22.30;99.90
19809;DHT22;48538;32.784;-96.802;2023-04-15T04:52:01;22.30;99.90
19809;DHT22;48538;32.784;-96.802;2023-04-15T04:54:27;22.30;99.90
19809;DHT22;48538;32.784;-96.802;2023-04-15T04:56:55;22.20;99.90
19809;DHT22;48538;32.784;-96.802;2023-04-15T04:59:23;22.20;99.90
19809;DHT22;48538;32.784;-96.802;2023-04-15T05:01:49;22.10;99.90
19809;DHT22;48538;32.784;-96.802;2023-04-15T05:04:16;22.20;99.90
19809;DHT22;48538;32.784;-96.802;2023-04-15T05:06:42;22.20;99.90
19809;DHT22;48538;32.784;-96.802;2023-04-15T05:09:08;22.30;99.90
19809;DHT22;48538;32.784;-96.802;2023-04-15T05:11:34;22.30;99.90
19809;DHT22;48538;32.784;-96.802;2023-04-15T05:14:01;22.20;99.90
19809;DHT22;48538;32.784;-96.802;2023-04-15T05:16:27;22.10;99.90
19809;DHT22;48538;32.784;-96.802;2023-04-15T05:18:54;22.20;99.90
19809;DHT22;48538;32.784;-96.802;2023-04-15T05:21:20;22.20;99.90
19809;DHT22;48538;32.784;-96.802;2023-04-15T05:23:46;22.20;99.90
19809;DHT22;48538;32.784;-96.802;2023-04-15T05:26:13;22.20;99.90
19809;DHT22;48538;32.784;-96.802;2023-04-15T05:28:39;22.20;99.90
19809;DHT22;48538;32.784;-96.802;2023-04-15T05:31:06;22.10;99.90
19809;DHT22;48538;32.784;-96.802;2023-04-15T05:33:32;22.10;99.90
19809;DHT22;48538;32.784;-96.802;2023-04-15T05:35:59;22.10;99.90
19809;DHT22;48538;32.784;-96.802;2023-04-15T05:38:26;22.10;99.90
19809;DHT22;48538;32.784;-96.802;2023-04-15T05:40:52;22.10;99.90
19809;DHT22;48538;32.784;-96.802;2023-04-15T05:43:18;22.10;99.90
19809;DHT22;48538;32.784;-96.802;2023-04-15T05:45:44;22.10;99.90
19809;DHT22;48538;32.784;-96.802;2023-04-15T05:48:11;22.10;99.90
19809;DHT22;48538;32.784;-96.802;2023-04-15T05:50:40;22.10;99.90
19809;DHT22;48538;32.784;-96.802;2023-04-15T05:53:07;22.20;99.90
19809;DHT22;48538;32.784;-96.802;2023-04-15T05:55:34;22.20;99.90
19809;DHT22;48538;32.784;-96.802;2023-04-15T05:58:00;22.20;99.90
19809;DHT22;48538;32.784;-96.802;2023-04-15T06:00:26;22.10;99.90
19809;DHT22;48538;32.784;-96.802;2023-04-15T06:02:54;22.10;99.90
19809;DHT22;48538;32.784;-96.802;2023-04-15T06:05:21;22.10;99.90
19809;DHT22;48538;32.784;-96.802;2023-04-15T06:07:47;22.10;99.90
19809;DHT22;48538;32.784;-96.802;2023-04-15T06:10:15;22.00;99.90
19809;DHT22;48538;32.784;-96.802;2023-04-15T06:12:41;22.00;99.90
19809;DHT22;48538;32.784;-96.802;2023-04-15T06:15:08;22.00;99.90
19809;DHT22;48538;32.784;-96.802;2023-04-15T06:17:37;22.00;99.90
19809;DHT22;48538;32.784;-96.802;2023-04-15T06:20:03;22.00;99.90
19809;DHT22;48538;32.784;-96.802;2023-04-15T06:22:30;21.90;99.90
19809;DHT22;48538;32.784;-96.802;2023-04-15T06:24:56;22.00;99.90
19809;DHT22;48538;32.784;-96.802;2023-04-15T06:27:22;21.90;99.90
19809;DHT22;48538;32.784;-96.802;2023-04-15T06:29:49;22.00;99.90
19809;DHT22;48538;32.784;-96.802;2023-04-15T06:32:15;21.90;99.90
19809;DHT22;48538;32.784;-96.802;2023-04-15T06:34:41;21.90;99.90
19809;DHT22;48538;32.784;-96.802;2023-04-15T06:37:07;21.90;99.90
19809;DHT22;48538;32.784;-96.802;2023-04-15T06:39:35;21.80;99.90
19809;DHT22;48538;32.784;-96.802;2023-04-15T06:42:03;21.80;99.90
19809;DHT22;48538;32.784;-96.802;2023-04-15T06:44:29;21.90;99.90
19809;DHT22;48538;32.784;-96.802;2023-04-15T06:46:55;21.90;99.90
19809;DHT22;48538;32.784;-96.802;2023-04-15T06:49:21;21.80;99.90
19809;DHT22;48538;32.784;-96.802;2023-04-15T06:51:48;21.80;99.90
19809;DHT22;48538;32.784;-96.802;2023-04-15T06:54:16;21.80;99.90
19809;DHT22;48538;32.784;-96.802;2023-04-15T06:56:42;21.80;99.90
19809;DHT22;48538;32.784;-96.802;2023-04-15T06:59:08;21.80;99.90
19809;DHT22;48538;32.784;-96.802;2023-04-15T07:01:35;21.80;99.90
19809;DHT22;48538;32.784;-96.802;2023-04-15T07:04:01;21.70;99.90
19809;DHT22;48538;32.784;-96.802;2023-04-15T07:06:27;21.70;99.90
19809;DHT22;48538;32.784;-96.802;2023-04-15T07:08:53;21.80;99.90
19809;DHT22;48538;32.784;-96.802;2023-04-15T07:11:20;21.80;99.90
19809;DHT22;48538;32.784;-96.802;2023-04-15T07:13:47;21.70;99.90
19809;DHT22;48538;32.784;-96.802;2023-04-15T07:16:13;21.80;99.90
19809;DHT22;48538;32.784;-96.802;2023-04-15T07:18:39;21.80;99.90
19809;DHT22;48538;32.784;-96.802;2023-04-15T07:21:11;21.80;99.90
19809;DHT22;48538;32.784;-96.802;2023-04-15T07:23:38;21.70;99.90
19809;DHT22;48538;32.784;-96.802;2023-04-15T07:26:04;21.80;99.90
19809;DHT22;48538;32.784;-96.802;2023-04-15T07:28:30;21.70;99.90
19809;DHT22;48538;32.784;-96.802;2023-04-15T07:30:57;21.80;99.90
19809;DHT22;48538;32.784;-96.802;2023-04-15T07:33:23;21.80;99.90
19809;DHT22;48538;32.784;-96.802;2023-04-15T07:35:49;21.80;99.90
19809;DHT22;48538;32.784;-96.802;2023-04-15T07:38:15;21.80;99.90
19809;DHT22;48538;32.784;-96.802;2023-04-15T07:40:42;21.80;99.90
19809;DHT22;48538;32.784;-96.802;2023-04-15T07:43:08;21.70;99.90
19809;DHT22;48538;32.784;-96.802;2023-04-15T07:45:35;21.70;99.90
19809;DHT22;48538;32.784;-96.802;2023-04-15T07:48:02;21.70;99.90
19809;DHT22;48538;32.784;-96.802;2023-04-15T07:50:28;21.70;99.90
19809;DHT22;48538;32.784;-96.802;2023-04-15T07:52:55;21.70;99.90
19809;DHT22;48538;32.784;-96.802;2023-04-15T07:55:22;21.70;99.90
19809;DHT22;48538;32.784;-96.802;2023-04-15T07:57:49;21.80;99.90
19809;DHT22;48538;32.784;-96.802;2023-04-15T08:00:16;21.80;99.90
19809;DHT22;48538;32.784;-96.802;2023-04-15T08:02:43;21.80;99.90
19809;DHT22;48538;32.784;-96.802;2023-04-15T08:05:13;21.80;99.90
19809;DHT22;48538;32.784;-96.802;2023-04-15T08:07:40;21.80;99.90
19809;DHT22;48538;32.784;-96.802;2023-04-15T08:10:06;21.80;99.90
19809;DHT22;48538;32.784;-96.802;2023-04-15T08:12:33;21.70;99.90
19809;DHT22;48538;32.784;-96.802;2023-04-15T08:14:59;21.80;99.90
19809;DHT22;48538;32.784;-96.802;2023-04-15T08:17:27;21.80;99.90
19809;DHT22;48538;32.784;-96.802;2023-04-15T08:19:53;21.80;99.90
19809;DHT22;48538;32.784;-96.802;2023-04-15T08:22:19;21.80;99.90
19809;DHT22;48538;32.784;-96.802;2023-04-15T08:24:45;21.80;99.90
19809;DHT22;48538;32.784;-96.802;2023-04-15T08:27:12;21.80;99.90
19809;DHT22;48538;32.784;-96.802;2023-04-15T08:29:38;21.70;99.90
19809;DHT22;48538;32.784;-96.802;2023-04-15T08:32:05;21.70;99.90
19809;DHT22;48538;32.784;-96.802;2023-04-15T08:34:32;21.70;99.90
19809;DHT22;48538;32.784;-96.802;2023-04-15T08:36:59;21.70;99.90
19809;DHT22;48538;32.784;-96.802;2023-04-15T08:39:26;21.70;99.90
19809;DHT22;48538;32.784;-96.802;2023-04-15T08:42:02;21.70;99.90
19809;DHT22;48538;32.784;-96.802;2023-04-15T08:44:34;21.70;99.90
19809;DHT22;48538;32.784;-96.802;2023-04-15T08:47:07;21.70;99.90
19809;DHT22;48538;32.784;-96.802;2023-04-15T08:49:38;21.70;99.90
19809;DHT22;48538;32.784;-96.802;2023-04-15T08:52:05;21.70;99.90
19809;DHT22;48538;32.784;-96.802;2023-04-15T08:54:33;21.70;99.90
19809;DHT22;48538;32.784;-96.802;2023-04-15T08:57:00;21.60;99.90
19809;DHT22;48538;32.784;-96.802;2023-04-15T08:59:29;21.50;99.90
19809;DHT22;48538;32.784;-96.802;2023-04-15T09:01:57;21.60;99.90
19809;DHT22;48538;32.784;-96.802;2023-04-15T09:04:23;21.60;99.90
19809;DHT22;48538;32.784;-96.802;2023-04-15T09:06:49;21.60;99.90
19809;DHT22;48538;32.784;-96.802;2023-04-15T09:09:17;21.60;99.90
19809;DHT22;48538;32.784;-96.802;2023-04-15T09:11:43;21.60;99.90
19809;DHT22;48538;32.784;-96.802;2023-04-15T09:14:09;21.50;99.90
19809;DHT22;48538;32.784;-96.802;2023-04-15T09:16:55;21.50;99.90
19809;DHT22;48538;32.784;-96.802;2023-04-15T09:19:23;21.60;99.90
19809;DHT22;48538;32.784;-96.802;2023-04-15T09:21:52;21.60;99.90
19809;DHT22;48538;32.784;-96.802;2023-04-15T09:24:18;21.60;99.90
19809;DHT22;48538;32.784;-96.802;2023-04-15T09:26:45;21.50;99.90
19809;DHT22;48538;32.784;-96.802;2023-04-15T09:29:12;21.50;99.90
19809;DHT22;48538;32.784;-96.802;2023-04-15T09:31:39;21.50;99.90
19809;DHT22;48538;32.784;-96.802;2023-04-15T09:34:06;21.50;99.90
19809;DHT22;48538;32.784;-96.802;2023-04-15T09:36:56;21.50;99.90
19809;DHT22;48538;32.784;-96.802;2023-04-15T09:39:23;21.50;99.90
19809;DHT22;48538;32.784;-96.802;2023-04-15T09:42:05;21.50;99.90
19809;DHT22;48538;32.784;-96.802;2023-04-15T09:44:32;21.50;99.90
19809;DHT22;48538;32.784;-96.802;2023-04-15T09:46:59;21.60;99.90
19809;DHT22;48538;32.784;-96.802;2023-04-15T09:49:25;21.50;99.90
19809;DHT22;48538;32.784;-96.802;2023-04-15T09:52:00;21.50;99.90
19809;DHT22;48538;32.784;-96.802;2023-04-15T09:54:37;21.50;99.90
19809;DHT22;48538;32.784;-96.802;2023-04-15T09:57:07;21.50;99.90
19809;DHT22;48538;32.784;-96.802;2023-04-15T09:59:34;21.50;99.90
19809;DHT22;48538;32.784;-96.802;2023-04-15T10:02:03;21.40;99.90
19809;DHT22;48538;32.784;-96.802;2023-04-15T10:04:34;21.50;99.90
19809;DHT22;48538;32.784;-96.802;2023-04-15T10:07:04;21.50;99.90
19809;DHT22;48538;32.784;-96.802;2023-04-15T10:09:31;21.50;99.90
19809;DHT22;48538;32.784;-96.802;2023-04-15T10:11:58;21.40;99.90
19809;DHT22;48538;32.784;-96.802;2023-04-15T10:14:27;21.40;99.90
19809;DHT22;48538;32.784;-96.802;2023-04-15T10:16:55;21.50;99.90
19809;DHT22;48538;32.784;-96.802;2023-04-15T10:19:26;21.50;99.90
19809;DHT22;48538;32.784;-96.802;2023-04-15T10:21:57;21.50;99.90
19809;DHT22;48538;32.784;-96.802;2023-04-15T10:24:24;21.50;99.90
19809;DHT22;48538;32.784;-96.802;2023-04-15T10:26:51;21.60;99.90
19809;DHT22;48538;32.784;-96.802;2023-04-15T10:29:19;21.50;99.90
19809;DHT22;48538;32.784;-96.802;2023-04-15T10:31:46;21.50;99.90
19809;DHT22;48538;32.784;-96.802;2023-04-15T10:34:13;21.50;99.90
19809;DHT22;48538;32.784;-96.802;2023-04-15T10:36:40;21.50;99.90
19809;DHT22;48538;32.784;-96.802;2023-04-15T10:39:46;21.50;99.90
19809;DHT22;48538;32.784;-96.802;2023-04-15T10:42:16;21.40;99.90
19809;DHT22;48538;32.784;-96.802;2023-04-15T10:44:50;21.50;99.90
19809;DHT22;48538;32.784;-96.802;2023-04-15T10:47:18;21.50;99.90
19809;DHT22;48538;32.784;-96.802;2023-04-15T10:49:50;21.40;99.90
19809;DHT22;48538;32.784;-96.802;2023-04-15T10:52:22;21.40;99.90
19809;DHT22;48538;32.784;-96.802;2023-04-15T10:54:48;21.40;99.90
19809;DHT22;48538;32.784;-96.802;2023-04-15T10:57:22;21.40;99.90
19809;DHT22;48538;32.784;-96.802;2023-04-15T11:03:33;21.40;99.90
19809;DHT22;48538;32.784;-96.802;2023-04-15T11:08:08;21.30;99.90
19809;DHT22;48538;32.784;-96.802;2023-04-15T11:13:04;21.30;99.90
19809;DHT22;48538;32.784;-96.802;2023-04-15T11:15:44;21.20;99.90
19809;DHT22;48538;32.784;-96.802;2023-04-15T11:18:12;21.20;99.90
19809;DHT22;48538;32.784;-96.802;2023-04-15T11:20:40;21.30;99.90
19809;DHT22;48538;32.784;-96.802;2023-04-15T11:23:08;21.30;99.90
19809;DHT22;48538;32.784;-96.802;2023-04-15T11:25:35;21.30;99.90
19809;DHT22;48538;32.784;-96.802;2023-04-15T11:28:05;21.30;99.90
19809;DHT22;48538;32.784;-96.802;2023-04-15T11:30:33;21.20;99.90
19809;DHT22;48538;32.784;-96.802;2023-04-15T11:33:02;21.20;99.90
19809;DHT22;48538;32.784;-96.802;2023-04-15T11:35:29;21.20;99.90
19809;DHT22;48538;32.784;-96.802;2023-04-15T11:37:56;21.20;99.90
19809;DHT22;48538;32.784;-96.802;2023-04-15T11:40:28;21.20;99.90
19809;DHT22;48538;32.784;-96.802;2023-04-15T11:43:05;21.20;99.90
19809;DHT22;48538;32.784;-96.802;2023-04-15T11:45:32;21.20;99.90
19809;DHT22;48538;32.784;-96.802;2023-04-15T11:48:11;21.20;99.90
19809;DHT22;48538;32.784;-96.802;2023-04-15T11:50:38;21.30;99.90
19809;DHT22;48538;32.784;-96.802;2023-04-15T11:53:10;21.30;99.90
19809;DHT22;48538;32.784;-96.802;2023-04-15T11:55:48;21.30;99.90
19809;DHT22;48538;32.784;-96.802;2023-04-15T11:58:16;21.20;99.90
19809;DHT22;48538;32.784;-96.802;2023-04-15T12:00:57;21.20;99.90
19809;DHT22;48538;32.784;-96.802;2023-04-15T12:06:11;21.20;99.90
19809;DHT22;48538;32.784;-96.802;2023-04-15T12:08:55;21.30;99.90
19809;DHT22;48538;32.784;-96.802;2023-04-15T12:11:27;21.20;99.90
19809;DHT22;48538;32.784;-96.802;2023-04-15T12:14:01;21.20;99.90
19809;DHT22;48538;32.784;-96.802;2023-04-15T12:16:29;21.20;99.90
19809;DHT22;48538;32.784;-96.802;2023-04-15T12:18:57;21.10;99.90
19809;DHT22;48538;32.784;-96.802;2023-04-15T12:21:26;21.10;99.90
19809;DHT22;48538;32.784;-96.802;2023-04-15T12:23:55;21.10;99.90
19809;DHT22;48538;32.784;-96.802;2023-04-15T12:26:35;21.10;99.90
19809;DHT22;48538;32.784;-96.802;2023-04-15T12:29:10;21.20;99.90
19809;DHT22;48538;32.784;-96.802;2023-04-15T12:31:46;21.20;99.90
19809;DHT22;48538;32.784;-96.802;2023-04-15T12:34:14;21.10;99.90
19809;DHT22;48538;32.784;-96.802;2023-04-15T12:36:40;21.10;99.90
19809;DHT22;48538;32.784;-96.802;2023-04-15T12:39:07;21.10;99.90
19809;DHT22;48538;32.784;-96.802;2023-04-15T12:41:33;21.10;99.90
19809;DHT22;48538;32.784;-96.802;2023-04-15T12:44:00;21.10;99.90
19809;DHT22;48538;32.784;-96.802;2023-04-15T12:46:26;21.10;99.90
19809;DHT22;48538;32.784;-96.802;2023-04-15T12:48:53;21.10;99.90
19809;DHT22;48538;32.784;-96.802;2023-04-15T12:51:19;21.20;99.90
19809;DHT22;48538;32.784;-96.802;2023-04-15T12:53:49;21.20;99.90
19809;DHT22;48538;32.784;-96.802;2023-04-15T12:56:15;21.20;99.90
19809;DHT22;48538;32.784;-96.802;2023-04-15T12:58:42;21.20;99.90
19809;DHT22;48538;32.784;-96.802;2023-04-15T13:01:09;21.20;99.90
19809;DHT22;48538;32.784;-96.802;2023-04-15T13:03:36;21.30;99.90
19809;DHT22;48538;32.784;-96.802;2023-04-15T13:06:02;21.30;99.90
19809;DHT22;48538;32.784;-96.802;2023-04-15T13:08:29;21.40;99.90
19809;DHT22;48538;32.784;-96.802;2023-04-15T13:10:56;21.40;99.90
19809;DHT22;48538;32.784;-96.802;2023-04-15T13:13:22;21.50;99.90
19809;DHT22;48538;32.784;-96.802;2023-04-15T13:15:49;21.60;99.90
19809;DHT22;48538;32.784;-96.802;2023-04-15T13:18:15;21.70;99.90
19809;DHT22;48538;32.784;-96.802;2023-04-15T13:20:41;21.80;99.90
19809;DHT22;48538;32.784;-96.802;2023-04-15T13:23:08;21.80;99.90
19809;DHT22;48538;32.784;-96.802;2023-04-15T13:25:34;21.80;99.90
19809;DHT22;48538;32.784;-96.802;2023-04-15T13:28:00;21.90;99.90
19809;DHT22;48538;32.784;-96.802;2023-04-15T13:30:27;22.00;99.90
19809;DHT22;48538;32.784;-96.802;2023-04-15T13:32:53;22.10;99.90
19809;DHT22;48538;32.784;-96.802;2023-04-15T13:35:20;22.10;99.90
19809;DHT22;48538;32.784;-96.802;2023-04-15T13:37:46;22.10;99.90
19809;DHT22;48538;32.784;-96.802;2023-04-15T13:40:13;22.20;99.90
19809;DHT22;48538;32.784;-96.802;2023-04-15T13:42:39;22.30;99.90
19809;DHT22;48538;32.784;-96.802;2023-04-15T13:45:06;22.40;99.90
19809;DHT22;48538;32.784;-96.802;2023-04-15T13:47:32;22.40;99.90
19809;DHT22;48538;32.784;-96.802;2023-04-15T13:49:59;22.50;99.90
19809;DHT22;48538;32.784;-96.802;2023-04-15T13:52:25;22.50;99.90
19809;DHT22;48538;32.784;-96.802;2023-04-15T13:54:51;22.50;99.90
19809;DHT22;48538;32.784;-96.802;2023-04-15T13:57:17;22.60;99.90
19809;DHT22;48538;32.784;-96.802;2023-04-15T13:59:44;22.70;99.90
19809;DHT22;48538;32.784;-96.802;2023-04-15T14:02:10;22.70;99.90
19809;DHT22;48538;32.784;-96.802;2023-04-15T14:04:37;22.90;99.90
19809;DHT22;48538;32.784;-96.802;2023-04-15T14:07:03;22.90;99.90
19809;DHT22;48538;32.784;-96.802;2023-04-15T14:09:30;22.90;99.90
19809;DHT22;48538;32.784;-96.802;2023-04-15T14:11:56;23.00;99.90
19809;DHT22;48538;32.784;-96.802;2023-04-15T14:14:24;23.10;99.90
19809;DHT22;48538;32.784;-96.802;2023-04-15T14:16:51;23.10;99.90
19809;DHT22;48538;32.784;-96.802;2023-04-15T14:19:17;23.20;99.90
19809;DHT22;48538;32.784;-96.802;2023-04-15T14:21:43;23.40;99.90
19809;DHT22;48538;32.784;-96.802;2023-04-15T14:24:10;23.30;99.90
19809;DHT22;48538;32.784;-96.802;2023-04-15T14:26:36;23.40;99.90
19809;DHT22;48538;32.784;-96.802;2023-04-15T14:29:03;23.40;99.90
19809;DHT22;48538;32.784;-96.802;2023-04-15T14:31:29;23.30;99.90
19809;DHT22;48538;32.784;-96.802;2023-04-15T14:33:55;23.40;99.90
19809;DHT22;48538;32.784;-96.802;2023-04-15T14:36:22;23.30;99.90
19809;DHT22;48538;32.784;-96.802;2023-04-15T14:38:48;23.40;99.90
19809;DHT22;48538;32.784;-96.802;2023-04-15T14:41:14;23.50;99.90
19809;DHT22;48538;32.784;-96.802;2023-04-15T14:43:41;23.30;99.90
19809;DHT22;48538;32.784;-96.802;2023-04-15T14:46:07;23.40;99.90
19809;DHT22;48538;32.784;-96.802;2023-04-15T14:48:33;23.50;99.90
19809;DHT22;48538;32.784;-96.802;2023-04-15T14:51:00;23.50;99.90
19809;DHT22;48538;32.784;-96.802;2023-04-15T14:53:26;23.50;99.90
19809;DHT22;48538;32.784;-96.802;2023-04-15T14:55:52;23.50;99.90
19809;DHT22;48538;32.784;-96.802;2023-04-15T14:58:18;23.50;99.90
19809;DHT22;48538;32.784;-96.802;2023-04-15T15:00:45;23.60;99.90
19809;DHT22;48538;32.784;-96.802;2023-04-15T15:03:11;23.70;99.90
19809;DHT22;48538;32.784;-96.802;2023-04-15T15:05:39;23.70;99.90
19809;DHT22;48538;32.784;-96.802;2023-04-15T15:08:06;23.90;99.90
19809;DHT22;48538;32.784;-96.802;2023-04-15T15:10:34;23.90;99.90
19809;DHT22;48538;32.784;-96.802;2023-04-15T15:13:08;24.00;99.90
19809;DHT22;48538;32.784;-96.802;2023-04-15T15:15:36;24.00;99.90